sensor_id;sensor_type;location;lat;lon;timestamp;temperature;humidity
48589;DHT22;34369;51.174;6.738;2022-11-02T00:01:18;12.60;72.00
48589;DHT22;34369;51.174;6.738;2022-11-02T00:03:52;12.60;72.00
48589;DHT22;34369;51.174;6.738;2022-11-02T00:06:23;12.60;72.00
48589;DHT22;34369;51.174;6.738;2022-11-02T00:08:57;12.60;71.80
48589;DHT22;34369;51.174;6.738;2022-11-02T00:11:29;12.70;72.00
48589;DHT22;34369;51.174;6.738;2022-11-02T00:14:01;12.60;72.70
48589;DHT22;34369;51.174;6.738;2022-11-02T00:19:05;12.80;72.30
48589;DHT22;34369;51.174;6.738;2022-11-02T00:21:39;12.70;72.40
48589;DHT22;34369;51.174;6.738;2022-11-02T00:24:13;12.70;72.40
48589;DHT22;34369;51.174;6.738;2022-11-02T00:26:45;12.70;72.60
48589;DHT22;34369;51.174;6.738;2022-11-02T00:29:17;12.80;72.70
48589;DHT22;34369;51.174;6.738;2022-11-02T00:31:50;12.70;73.10
48589;DHT22;34369;51.174;6.738;2022-11-02T00:34:22;12.70;73.20
48589;DHT22;34369;51.174;6.738;2022-11-02T00:36:54;12.70;72.80
48589;DHT22;34369;51.174;6.738;2022-11-02T00:39:27;12.80;73.40
48589;DHT22;34369;51.174;6.738;2022-11-02T00:41:59;12.70;72.80
48589;DHT22;34369;51.174;6.738;2022-11-02T00:49:35;12.70;73.20
48589;DHT22;34369;51.174;6.738;2022-11-02T00:52:08;12.80;73.10
48589;DHT22;34369;51.174;6.738;2022-11-02T00:54:41;12.80;73.20
48589;DHT22;34369;51.174;6.738;2022-11-02T00:57:13;12.90;73.10
48589;DHT22;34369;51.174;6.738;2022-11-02T00:59:45;13.00;73.00
48589;DHT22;34369;51.174;6.738;2022-11-02T01:02:17;13.00;72.90
48589;DHT22;34369;51.174;6.738;2022-11-02T01:04:49;13.00;72.70
48589;DHT22;34369;51.174;6.738;2022-11-02T01:07:21;13.00;73.00
48589;DHT22;34369;51.174;6.738;2022-11-02T01:09:54;13.00;72.10
48589;DHT22;34369;51.174;6.738;2022-11-02T01:12:26;13.10;72.20
48589;DHT22;34369;51.174;6.738;2022-11-02T01:14:58;13.00;72.00
48589;DHT22;34369;51.174;6.738;2022-11-02T01:17:30;13.10;71.90
48589;DHT22;34369;51.174;6.738;2022-11-02T01:20:02;13.10;71.70
48589;DHT22;34369;51.174;6.738;2022-11-02T01:22:35;13.10;71.70
48589;DHT22;34369;51.174;6.738;2022-11-02T01:25:08;13.20;72.10
48589;DHT22;34369;51.174;6.738;2022-11-02T01:27:40;13.20;71.60
48589;DHT22;34369;51.174;6.738;2022-11-02T01:30:12;13.20;71.50
48589;DHT22;34369;51.174;6.738;2022-11-02T01:32:44;13.10;71.40
48589;DHT22;34369;51.174;6.738;2022-11-02T01:35:16;13.00;71.40
48589;DHT22;34369;51.174;6.738;2022-11-02T01:37:48;13.20;71.30
48589;DHT22;34369;51.174;6.738;2022-11-02T01:40:21;13.20;71.30
48589;DHT22;34369;51.174;6.738;2022-11-02T01:42:53;13.20;71.10
48589;DHT22;34369;51.174;6.738;2022-11-02T01:45:25;13.30;71.10
48589;DHT22;34369;51.174;6.738;2022-11-02T01:47:58;13.10;71.10
48589;DHT22;34369;51.174;6.738;2022-11-02T01:50:30;13.20;71.50
48589;DHT22;34369;51.174;6.738;2022-11-02T01:53:02;13.30;71.10
48589;DHT22;34369;51.174;6.738;2022-11-02T01:55:35;13.30;71.70
48589;DHT22;34369;51.174;6.738;2022-11-02T01:58:09;13.30;70.90
48589;DHT22;34369;51.174;6.738;2022-11-02T02:00:43;13.20;70.90
48589;DHT22;34369;51.174;6.738;2022-11-02T02:03:16;13.20;70.80
48589;DHT22;34369;51.174;6.738;2022-11-02T02:05:55;13.30;70.80
48589;DHT22;34369;51.174;6.738;2022-11-02T02:08:30;13.30;70.80
48589;DHT22;34369;51.174;6.738;2022-11-02T02:11:26;13.40;71.20
48589;DHT22;34369;51.174;6.738;2022-11-02T02:14:01;13.20;71.20
48589;DHT22;34369;51.174;6.738;2022-11-02T02:17:02;13.20;70.70
48589;DHT22;34369;51.174;6.738;2022-11-02T02:19:46;13.30;70.70
48589;DHT22;34369;51.174;6.738;2022-11-02T02:22:46;13.10;70.60
48589;DHT22;34369;51.174;6.738;2022-11-02T02:25:52;13.10;71.10
48589;DHT22;34369;51.174;6.738;2022-11-02T02:28:41;13.30;70.90
48589;DHT22;34369;51.174;6.738;2022-11-02T02:31:20;13.20;70.90
48589;DHT22;34369;51.174;6.738;2022-11-02T02:34:00;13.10;71.40
48589;DHT22;34369;51.174;6.738;2022-11-02T02:36:39;13.00;70.90
48589;DHT22;34369;51.174;6.738;2022-11-02T02:39:19;13.10;71.40
48589;DHT22;34369;51.174;6.738;2022-11-02T02:41:58;13.10;71.30
48589;DHT22;34369;51.174;6.738;2022-11-02T02:44:40;13.30;71.10
48589;DHT22;34369;51.174;6.738;2022-11-02T02:47:16;13.00;71.20
48589;DHT22;34369;51.174;6.738;2022-11-02T02:49:54;13.00;71.20
48589;DHT22;34369;51.174;6.738;2022-11-02T02:52:29;13.00;71.20
48589;DHT22;34369;51.174;6.738;2022-11-02T02:55:05;13.00;70.90
48589;DHT22;34369;51.174;6.738;2022-11-02T02:57:38;13.00;71.00
48589;DHT22;34369;51.174;6.738;2022-11-02T03:00:14;12.90;71.30
48589;DHT22;34369;51.174;6.738;2022-11-02T03:02:47;12.90;70.80
48589;DHT22;34369;51.174;6.738;2022-11-02T03:05:31;12.90;70.90
48589;DHT22;34369;51.174;6.738;2022-11-02T03:08:07;12.90;70.80
48589;DHT22;34369;51.174;6.738;2022-11-02T03:10:43;12.90;70.80
48589;DHT22;34369;51.174;6.738;2022-11-02T03:13:33;12.90;71.30
48589;DHT22;34369;51.174;6.738;2022-11-02T03:16:13;12.90;70.80
48589;DHT22;34369;51.174;6.738;2022-11-02T03:18:57;12.90;70.80
48589;DHT22;34369;51.174;6.738;2022-11-02T03:21:38;12.90;70.70
48589;DHT22;34369;51.174;6.738;2022-11-02T03:24:15;13.00;71.30
48589;DHT22;34369;51.174;6.738;2022-11-02T03:26:57;12.80;70.80
48589;DHT22;34369;51.174;6.738;2022-11-02T03:29:39;13.00;70.90
48589;DHT22;34369;51.174;6.738;2022-11-02T03:32:19;12.80;70.90
48589;DHT22;34369;51.174;6.738;2022-11-02T03:34:56;12.90;71.00
48589;DHT22;34369;51.174;6.738;2022-11-02T03:37:33;12.90;71.00
48589;DHT22;34369;51.174;6.738;2022-11-02T03:40:09;12.90;71.00
48589;DHT22;34369;51.174;6.738;2022-11-02T03:42:44;12.90;70.90
48589;DHT22;34369;51.174;6.738;2022-11-02T03:45:20;12.80;71.30
48589;DHT22;34369;51.174;6.738;2022-11-02T03:47:57;12.80;70.90
48589;DHT22;34369;51.174;6.738;2022-11-02T03:50:32;12.90;70.70
48589;DHT22;34369;51.174;6.738;2022-11-02T03:53:08;13.30;71.00
48589;DHT22;34369;51.174;6.738;2022-11-02T03:55:47;12.70;70.50
48589;DHT22;34369;51.174;6.738;2022-11-02T03:58:22;12.80;70.30
48589;DHT22;34369;51.174;6.738;2022-11-02T04:00:56;12.80;70.70
48589;DHT22;34369;51.174;6.738;2022-11-02T04:03:31;12.80;70.50
48589;DHT22;34369;51.174;6.738;2022-11-02T04:06:04;12.80;70.10
48589;DHT22;34369;51.174;6.738;2022-11-02T04:08:39;12.80;70.40
48589;DHT22;34369;51.174;6.738;2022-11-02T04:11:12;12.90;70.10
48589;DHT22;34369;51.174;6.738;2022-11-02T04:14:02;12.80;70.00
48589;DHT22;34369;51.174;6.738;2022-11-02T04:16:51;12.70;69.90
48589;DHT22;34369;51.174;6.738;2022-11-02T04:19:45;12.70;69.90
48589;DHT22;34369;51.174;6.738;2022-11-02T04:22:17;12.50;69.80
48589;DHT22;34369;51.174;6.738;2022-11-02T04:25:12;12.60;70.00
48589;DHT22;34369;51.174;6.738;2022-11-02T04:27:52;12.70;70.10
48589;DHT22;34369;51.174;6.738;2022-11-02T04:32:56;12.50;70.10
48589;DHT22;34369;51.174;6.738;2022-11-02T04:35:43;12.50;70.40
48589;DHT22;34369;51.174;6.738;2022-11-02T04:38:15;12.50;70.50
48589;DHT22;34369;51.174;6.738;2022-11-02T04:41:05;12.50;70.60
48589;DHT22;34369;51.174;6.738;2022-11-02T04:43:55;12.50;70.70
48589;DHT22;34369;51.174;6.738;2022-11-02T04:46:29;12.50;71.00
48589;DHT22;34369;51.174;6.738;2022-11-02T04:49:02;12.30;71.10
48589;DHT22;34369;51.174;6.738;2022-11-02T04:51:35;12.30;71.60
48589;DHT22;34369;51.174;6.738;2022-11-02T04:56:41;12.30;71.40
48589;DHT22;34369;51.174;6.738;2022-11-02T05:01:46;12.30;71.40
48589;DHT22;34369;51.174;6.738;2022-11-02T05:04:17;12.40;72.00
48589;DHT22;34369;51.174;6.738;2022-11-02T05:06:51;12.30;71.60
48589;DHT22;34369;51.174;6.738;2022-11-02T05:09:22;12.20;72.00
48589;DHT22;34369;51.174;6.738;2022-11-02T05:11:54;12.20;71.70
48589;DHT22;34369;51.174;6.738;2022-11-02T05:14:26;12.50;71.90
48589;DHT22;34369;51.174;6.738;2022-11-02T05:16:58;12.20;72.10
48589;DHT22;34369;51.174;6.738;2022-11-02T05:19:30;12.50;72.10
48589;DHT22;34369;51.174;6.738;2022-11-02T05:22:03;12.30;71.30
48589;DHT22;34369;51.174;6.738;2022-11-02T05:24:35;12.30;71.40
48589;DHT22;34369;51.174;6.738;2022-11-02T05:27:08;12.20;71.80
48589;DHT22;34369;51.174;6.738;2022-11-02T05:32:13;12.20;71.20
48589;DHT22;34369;51.174;6.738;2022-11-02T05:34:44;12.10;71.20
48589;DHT22;34369;51.174;6.738;2022-11-02T05:37:18;12.30;71.20
48589;DHT22;34369;51.174;6.738;2022-11-02T05:39:50;12.30;71.70
48589;DHT22;34369;51.174;6.738;2022-11-02T05:42:21;12.10;71.00
48589;DHT22;34369;51.174;6.738;2022-11-02T05:44:53;12.30;71.60
48589;DHT22;34369;51.174;6.738;2022-11-02T05:47:25;12.30;71.10
48589;DHT22;34369;51.174;6.738;2022-11-02T05:49:57;12.20;71.00
48589;DHT22;34369;51.174;6.738;2022-11-02T05:52:30;12.30;71.00
48589;DHT22;34369;51.174;6.738;2022-11-02T05:55:03;12.20;70.90
48589;DHT22;34369;51.174;6.738;2022-11-02T05:57:35;12.20;70.90
48589;DHT22;34369;51.174;6.738;2022-11-02T06:00:08;12.20;70.90
48589;DHT22;34369;51.174;6.738;2022-11-02T06:02:41;12.20;70.90
48589;DHT22;34369;51.174;6.738;2022-11-02T06:05:13;12.20;70.90
48589;DHT22;34369;51.174;6.738;2022-11-02T06:07:47;12.10;70.90
48589;DHT22;34369;51.174;6.738;2022-11-02T06:10:19;12.10;70.90
48589;DHT22;34369;51.174;6.738;2022-11-02T06:12:53;12.10;70.70
48589;DHT22;34369;51.174;6.738;2022-11-02T06:15:27;12.10;70.80
48589;DHT22;34369;51.174;6.738;2022-11-02T06:17:59;12.10;70.80
48589;DHT22;34369;51.174;6.738;2022-11-02T06:20:32;12.00;70.70
48589;DHT22;34369;51.174;6.738;2022-11-02T06:23:05;12.10;70.80
48589;DHT22;34369;51.174;6.738;2022-11-02T06:28:09;11.90;70.70
48589;DHT22;34369;51.174;6.738;2022-11-02T06:30:41;11.90;71.20
48589;DHT22;34369;51.174;6.738;2022-11-02T06:33:14;11.90;71.40
48589;DHT22;34369;51.174;6.738;2022-11-02T06:35:46;12.10;71.20
48589;DHT22;34369;51.174;6.738;2022-11-02T06:38:21;12.00;71.10
48589;DHT22;34369;51.174;6.738;2022-11-02T06:40:54;11.90;71.50
48589;DHT22;34369;51.174;6.738;2022-11-02T06:43:27;11.90;71.20
48589;DHT22;34369;51.174;6.738;2022-11-02T06:45:59;11.80;71.20
48589;DHT22;34369;51.174;6.738;2022-11-02T06:48:31;11.90;71.40
48589;DHT22;34369;51.174;6.738;2022-11-02T06:51:04;11.80;71.50
48589;DHT22;34369;51.174;6.738;2022-11-02T06:53:38;11.80;71.50
48589;DHT22;34369;51.174;6.738;2022-11-02T06:56:10;11.80;71.60
48589;DHT22;34369;51.174;6.738;2022-11-02T06:58:42;11.80;71.70
48589;DHT22;34369;51.174;6.738;2022-11-02T07:01:15;11.80;71.70
48589;DHT22;34369;51.174;6.738;2022-11-02T07:03:48;11.90;71.90
48589;DHT22;34369;51.174;6.738;2022-11-02T07:06:21;11.80;71.90
48589;DHT22;34369;51.174;6.738;2022-11-02T07:08:54;11.80;72.00
48589;DHT22;34369;51.174;6.738;2022-11-02T07:11:26;11.90;72.20
48589;DHT22;34369;51.174;6.738;2022-11-02T07:13:59;11.90;72.30
48589;DHT22;34369;51.174;6.738;2022-11-02T07:16:30;11.80;72.80
48589;DHT22;34369;51.174;6.738;2022-11-02T07:19:02;11.90;73.00
48589;DHT22;34369;51.174;6.738;2022-11-02T07:21:34;12.00;72.50
48589;DHT22;34369;51.174;6.738;2022-11-02T07:24:08;12.10;72.10
48589;DHT22;34369;51.174;6.738;2022-11-02T07:26:40;15.00;73.80
48589;DHT22;34369;51.174;6.738;2022-11-02T07:29:12;12.20;72.20
48589;DHT22;34369;51.174;6.738;2022-11-02T07:31:45;12.20;71.90
48589;DHT22;34369;51.174;6.738;2022-11-02T07:36:49;12.40;71.80
48589;DHT22;34369;51.174;6.738;2022-11-02T07:39:23;12.40;71.60
48589;DHT22;34369;51.174;6.738;2022-11-02T07:44:27;12.30;71.10
48589;DHT22;34369;51.174;6.738;2022-11-02T07:47:00;12.40;71.30
48589;DHT22;34369;51.174;6.738;2022-11-02T07:49:32;12.40;71.10
48589;DHT22;34369;51.174;6.738;2022-11-02T07:52:04;12.40;71.20
48589;DHT22;34369;51.174;6.738;2022-11-02T07:54:38;12.50;71.10
48589;DHT22;34369;51.174;6.738;2022-11-02T07:57:10;12.20;70.90
48589;DHT22;34369;51.174;6.738;2022-11-02T07:59:42;12.60;71.00
48589;DHT22;34369;51.174;6.738;2022-11-02T08:02:14;12.40;71.30
48589;DHT22;34369;51.174;6.738;2022-11-02T08:04:46;12.50;71.40
48589;DHT22;34369;51.174;6.738;2022-11-02T08:07:18;12.60;71.30
48589;DHT22;34369;51.174;6.738;2022-11-02T08:09:51;12.70;71.30
48589;DHT22;34369;51.174;6.738;2022-11-02T08:12:23;12.70;71.10
48589;DHT22;34369;51.174;6.738;2022-11-02T08:14:56;12.70;71.30
48589;DHT22;34369;51.174;6.738;2022-11-02T08:17:29;12.90;70.80
48589;DHT22;34369;51.174;6.738;2022-11-02T08:20:01;12.90;71.50
48589;DHT22;34369;51.174;6.738;2022-11-02T08:22:36;13.10;71.50
48589;DHT22;34369;51.174;6.738;2022-11-02T08:25:10;13.30;71.40
48589;DHT22;34369;51.174;6.738;2022-11-02T08:27:41;13.90;70.30
48589;DHT22;34369;51.174;6.738;2022-11-02T08:30:13;13.80;70.50
48589;DHT22;34369;51.174;6.738;2022-11-02T08:32:45;14.10;69.60
48589;DHT22;34369;51.174;6.738;2022-11-02T08:35:17;14.20;68.70
48589;DHT22;34369;51.174;6.738;2022-11-02T08:37:52;14.20;68.00
48589;DHT22;34369;51.174;6.738;2022-11-02T08:40:26;14.30;68.10
48589;DHT22;34369;51.174;6.738;2022-11-02T08:43:00;14.30;67.30
48589;DHT22;34369;51.174;6.738;2022-11-02T08:45:34;14.30;67.40
48589;DHT22;34369;51.174;6.738;2022-11-02T08:48:08;14.40;67.00
48589;DHT22;34369;51.174;6.738;2022-11-02T08:50:40;14.30;66.60
48589;DHT22;34369;51.174;6.738;2022-11-02T08:53:12;14.50;67.20
48589;DHT22;34369;51.174;6.738;2022-11-02T08:55:46;14.70;67.20
48589;DHT22;34369;51.174;6.738;2022-11-02T08:58:18;14.60;67.70
48589;DHT22;34369;51.174;6.738;2022-11-02T09:00:51;14.70;67.20
48589;DHT22;34369;51.174;6.738;2022-11-02T09:03:24;14.80;65.60
48589;DHT22;34369;51.174;6.738;2022-11-02T09:05:58;14.70;65.10
48589;DHT22;34369;51.174;6.738;2022-11-02T09:08:32;14.80;65.70
48589;DHT22;34369;51.174;6.738;2022-11-02T09:11:05;14.70;65.40
48589;DHT22;34369;51.174;6.738;2022-11-02T09:13:37;14.80;65.70
48589;DHT22;34369;51.174;6.738;2022-11-02T09:16:10;14.60;65.40
48589;DHT22;34369;51.174;6.738;2022-11-02T09:18:42;14.50;65.50
48589;DHT22;34369;51.174;6.738;2022-11-02T09:21:14;14.50;65.90
48589;DHT22;34369;51.174;6.738;2022-11-02T09:23:46;14.40;65.80
48589;DHT22;34369;51.174;6.738;2022-11-02T09:26:20;14.30;66.20
48589;DHT22;34369;51.174;6.738;2022-11-02T09:28:52;14.30;66.00
48589;DHT22;34369;51.174;6.738;2022-11-02T09:31:24;14.20;65.70
48589;DHT22;34369;51.174;6.738;2022-11-02T09:33:58;14.30;66.10
48589;DHT22;34369;51.174;6.738;2022-11-02T09:36:30;14.20;66.00
48589;DHT22;34369;51.174;6.738;2022-11-02T09:39:02;14.10;66.20
48589;DHT22;34369;51.174;6.738;2022-11-02T09:41:40;14.10;66.00
48589;DHT22;34369;51.174;6.738;2022-11-02T09:44:21;14.00;65.60
48589;DHT22;34369;51.174;6.738;2022-11-02T09:49:30;14.20;65.90
48589;DHT22;34369;51.174;6.738;2022-11-02T09:52:02;14.10;66.50
48589;DHT22;34369;51.174;6.738;2022-11-02T09:54:41;14.20;65.90
48589;DHT22;34369;51.174;6.738;2022-11-02T09:57:23;14.20;65.40
48589;DHT22;34369;51.174;6.738;2022-11-02T10:00:00;14.20;65.40
48589;DHT22;34369;51.174;6.738;2022-11-02T10:02:42;14.30;66.20
48589;DHT22;34369;51.174;6.738;2022-11-02T10:05:23;14.30;66.30
48589;DHT22;34369;51.174;6.738;2022-11-02T10:08:20;14.40;65.90
48589;DHT22;34369;51.174;6.738;2022-11-02T10:11:07;14.40;65.10
48589;DHT22;34369;51.174;6.738;2022-11-02T10:13:52;14.50;65.10
48589;DHT22;34369;51.174;6.738;2022-11-02T10:16:31;9.90;62.80
48589;DHT22;34369;51.174;6.738;2022-11-02T10:19:12;14.40;64.50
48589;DHT22;34369;51.174;6.738;2022-11-02T10:21:48;14.50;64.60
48589;DHT22;34369;51.174;6.738;2022-11-02T10:24:25;14.50;64.90
48589;DHT22;34369;51.174;6.738;2022-11-02T10:27:03;14.60;65.40
48589;DHT22;34369;51.174;6.738;2022-11-02T10:29:50;14.70;64.90
48589;DHT22;34369;51.174;6.738;2022-11-02T10:32:26;15.10;63.10
48589;DHT22;34369;51.174;6.738;2022-11-02T10:34:59;15.00;63.90
48589;DHT22;34369;51.174;6.738;2022-11-02T10:37:43;15.30;63.20
48589;DHT22;34369;51.174;6.738;2022-11-02T10:40:43;15.30;62.20
48589;DHT22;34369;51.174;6.738;2022-11-02T10:43:27;15.50;62.10
48589;DHT22;34369;51.174;6.738;2022-11-02T10:46:20;15.60;61.80
48589;DHT22;34369;51.174;6.738;2022-11-02T10:49:03;15.90;62.00
48589;DHT22;34369;51.174;6.738;2022-11-02T10:51:40;15.80;62.10
48589;DHT22;34369;51.174;6.738;2022-11-02T10:54:13;15.90;61.80
48589;DHT22;34369;51.174;6.738;2022-11-02T10:56:46;16.00;61.10
48589;DHT22;34369;51.174;6.738;2022-11-02T10:59:21;16.30;60.00
48589;DHT22;34369;51.174;6.738;2022-11-02T11:02:09;16.40;59.30
48589;DHT22;34369;51.174;6.738;2022-11-02T11:04:42;16.30;58.50
48589;DHT22;34369;51.174;6.738;2022-11-02T11:07:18;16.50;59.70
48589;DHT22;34369;51.174;6.738;2022-11-02T11:09:55;16.60;58.70
48589;DHT22;34369;51.174;6.738;2022-11-02T11:12:30;16.70;59.00
48589;DHT22;34369;51.174;6.738;2022-11-02T11:15:05;16.80;57.60
48589;DHT22;34369;51.174;6.738;2022-11-02T11:17:39;16.70;57.90
48589;DHT22;34369;51.174;6.738;2022-11-02T11:20:30;16.80;57.50
48589;DHT22;34369;51.174;6.738;2022-11-02T11:23:08;16.70;57.20
48589;DHT22;34369;51.174;6.738;2022-11-02T11:25:56;16.70;57.40
48589;DHT22;34369;51.174;6.738;2022-11-02T11:28:32;16.70;57.20
48589;DHT22;34369;51.174;6.738;2022-11-02T11:31:12;16.60;56.90
48589;DHT22;34369;51.174;6.738;2022-11-02T11:33:49;16.70;57.20
48589;DHT22;34369;51.174;6.738;2022-11-02T11:36:26;16.60;57.30
48589;DHT22;34369;51.174;6.738;2022-11-02T11:39:02;16.50;57.20
48589;DHT22;34369;51.174;6.738;2022-11-02T11:41:38;16.60;57.90
48589;DHT22;34369;51.174;6.738;2022-11-02T11:44:12;16.70;58.00
48589;DHT22;34369;51.174;6.738;2022-11-02T11:46:46;16.80;58.40
48589;DHT22;34369;51.174;6.738;2022-11-02T11:49:24;16.90;58.30
48589;DHT22;34369;51.174;6.738;2022-11-02T11:51:59;17.40;57.60
48589;DHT22;34369;51.174;6.738;2022-11-02T11:54:32;17.40;57.60
48589;DHT22;34369;51.174;6.738;2022-11-02T11:57:21;17.70;57.30
48589;DHT22;34369;51.174;6.738;2022-11-02T11:59:58;17.90;56.00
48589;DHT22;34369;51.174;6.738;2022-11-02T12:02:35;18.00;55.70
48589;DHT22;34369;51.174;6.738;2022-11-02T12:05:13;18.10;54.80
48589;DHT22;34369;51.174;6.738;2022-11-02T12:08:07;18.10;54.00
48589;DHT22;34369;51.174;6.738;2022-11-02T12:10:56;17.90;53.80
48589;DHT22;34369;51.174;6.738;2022-11-02T12:13:54;17.80;53.90
48589;DHT22;34369;51.174;6.738;2022-11-02T12:16:47;17.80;53.90
48589;DHT22;34369;51.174;6.738;2022-11-02T12:19:35;17.60;53.40
48589;DHT22;34369;51.174;6.738;2022-11-02T12:22:20;17.30;54.20
48589;DHT22;34369;51.174;6.738;2022-11-02T12:25:10;17.20;54.50
48589;DHT22;34369;51.174;6.738;2022-11-02T12:27:54;16.80;55.00
48589;DHT22;34369;51.174;6.738;2022-11-02T12:30:35;16.80;55.10
48589;DHT22;34369;51.174;6.738;2022-11-02T12:33:32;16.60;55.30
48589;DHT22;34369;51.174;6.738;2022-11-02T12:36:32;16.50;55.90
48589;DHT22;34369;51.174;6.738;2022-11-02T12:39:21;16.30;56.20
48589;DHT22;34369;51.174;6.738;2022-11-02T12:42:10;16.20;56.60
48589;DHT22;34369;51.174;6.738;2022-11-02T12:45:16;16.20;56.50
48589;DHT22;34369;51.174;6.738;2022-11-02T12:47:58;16.20;56.30
48589;DHT22;34369;51.174;6.738;2022-11-02T12:50:43;16.00;56.60
48589;DHT22;34369;51.174;6.738;2022-11-02T12:53:34;15.90;56.80
48589;DHT22;34369;51.174;6.738;2022-11-02T12:56:15;15.80;56.90
48589;DHT22;34369;51.174;6.738;2022-11-02T13:01:26;15.80;57.40
48589;DHT22;34369;51.174;6.738;2022-11-02T13:04:08;15.90;58.10
48589;DHT22;34369;51.174;6.738;2022-11-02T13:06:47;15.80;58.10
48589;DHT22;34369;51.174;6.738;2022-11-02T13:09:23;15.80;58.00
48589;DHT22;34369;51.174;6.738;2022-11-02T13:12:02;15.80;58.10
48589;DHT22;34369;51.174;6.738;2022-11-02T13:14:40;15.80;57.90
48589;DHT22;34369;51.174;6.738;2022-11-02T13:17:19;15.80;58.10
48589;DHT22;34369;51.174;6.738;2022-11-02T13:19:54;15.80;58.40
48589;DHT22;34369;51.174;6.738;2022-11-02T13:22:32;15.90;58.30
48589;DHT22;34369;51.174;6.738;2022-11-02T13:25:13;15.80;58.40
48589;DHT22;34369;51.174;6.738;2022-11-02T13:27:51;15.80;58.40
48589;DHT22;34369;51.174;6.738;2022-11-02T13:30:24;15.90;58.30
48589;DHT22;34369;51.174;6.738;2022-11-02T13:33:00;15.90;57.90
48589;DHT22;34369;51.174;6.738;2022-11-02T13:35:35;15.90;57.80
48589;DHT22;34369;51.174;6.738;2022-11-02T13:38:20;15.90;57.70
48589;DHT22;34369;51.174;6.738;2022-11-02T13:41:13;15.90;57.70
48589;DHT22;34369;51.174;6.738;2022-11-02T13:47:40;15.80;58.00
48589;DHT22;34369;51.174;6.738;2022-11-02T13:50:23;15.90;57.80
48589;DHT22;34369;51.174;6.738;2022-11-02T13:52:59;15.80;58.10
48589;DHT22;34369;51.174;6.738;2022-11-02T13:55:39;15.80;58.00
48589;DHT22;34369;51.174;6.738;2022-11-02T13:58:21;15.80;57.90
48589;DHT22;34369;51.174;6.738;2022-11-02T14:01:00;15.80;57.80
48589;DHT22;34369;51.174;6.738;2022-11-02T14:03:45;15.80;58.10
48589;DHT22;34369;51.174;6.738;2022-11-02T14:06:20;15.70;57.60
48589;DHT22;34369;51.174;6.738;2022-11-02T14:08:55;15.70;57.80
48589;DHT22;34369;51.174;6.738;2022-11-02T14:11:35;15.70;57.90
48589;DHT22;34369;51.174;6.738;2022-11-02T14:14:20;15.80;57.90
48589;DHT22;34369;51.174;6.738;2022-11-02T14:17:09;15.70;58.20
48589;DHT22;34369;51.174;6.738;2022-11-02T14:19:53;15.70;58.50
48589;DHT22;34369;51.174;6.738;2022-11-02T14:22:26;15.70;57.60
48589;DHT22;34369;51.174;6.738;2022-11-02T14:25:18;15.60;57.60
48589;DHT22;34369;51.174;6.738;2022-11-02T14:27:53;15.70;57.20
48589;DHT22;34369;51.174;6.738;2022-11-02T14:30:42;15.50;57.00
48589;DHT22;34369;51.174;6.738;2022-11-02T14:33:40;15.50;57.00
48589;DHT22;34369;51.174;6.738;2022-11-02T14:36:38;15.40;57.10
48589;DHT22;34369;51.174;6.738;2022-11-02T14:39:22;15.40;57.40
48589;DHT22;34369;51.174;6.738;2022-11-02T14:42:10;15.20;56.90
48589;DHT22;34369;51.174;6.738;2022-11-02T14:45:27;15.20;57.00
48589;DHT22;34369;51.174;6.738;2022-11-02T14:48:05;15.20;57.40
48589;DHT22;34369;51.174;6.738;2022-11-02T14:50:56;15.20;57.80
48589;DHT22;34369;51.174;6.738;2022-11-02T14:53:33;15.10;58.60
48589;DHT22;34369;51.174;6.738;2022-11-02T14:56:07;15.00;58.00
48589;DHT22;34369;51.174;6.738;2022-11-02T14:58:48;15.00;58.60
48589;DHT22;34369;51.174;6.738;2022-11-02T15:01:22;14.90;58.10
48589;DHT22;34369;51.174;6.738;2022-11-02T15:03:54;14.90;58.20
48589;DHT22;34369;51.174;6.738;2022-11-02T15:06:28;14.80;58.20
48589;DHT22;34369;51.174;6.738;2022-11-02T15:09:03;14.80;58.30
48589;DHT22;34369;51.174;6.738;2022-11-02T15:11:48;14.80;58.20
48589;DHT22;34369;51.174;6.738;2022-11-02T15:17:52;14.60;58.50
48589;DHT22;34369;51.174;6.738;2022-11-02T15:20:30;14.50;58.30
48589;DHT22;34369;51.174;6.738;2022-11-02T15:23:14;14.50;58.90
48589;DHT22;34369;51.174;6.738;2022-11-02T15:25:51;14.30;58.50
48589;DHT22;34369;51.174;6.738;2022-11-02T15:28:27;14.40;59.10
48589;DHT22;34369;51.174;6.738;2022-11-02T15:31:03;14.30;58.70
48589;DHT22;34369;51.174;6.738;2022-11-02T15:33:39;14.20;59.10
48589;DHT22;34369;51.174;6.738;2022-11-02T15:36:15;14.20;59.00
48589;DHT22;34369;51.174;6.738;2022-11-02T15:38:52;14.40;59.40
48589;DHT22;34369;51.174;6.738;2022-11-02T15:41:32;14.00;59.60
48589;DHT22;34369;51.174;6.738;2022-11-02T15:44:32;13.90;59.50
48589;DHT22;34369;51.174;6.738;2022-11-02T15:47:17;12.10;58.80
48589;DHT22;34369;51.174;6.738;2022-11-02T15:53:12;13.60;59.90
48589;DHT22;34369;51.174;6.738;2022-11-02T15:56:09;13.70;60.20
48589;DHT22;34369;51.174;6.738;2022-11-02T15:59:07;13.40;60.20
48589;DHT22;34369;51.174;6.738;2022-11-02T16:01:46;13.30;60.40
48589;DHT22;34369;51.174;6.738;2022-11-02T16:04:34;13.20;60.50
48589;DHT22;34369;51.174;6.738;2022-11-02T16:07:07;13.20;61.20
48589;DHT22;34369;51.174;6.738;2022-11-02T16:09:39;13.10;60.90
48589;DHT22;34369;51.174;6.738;2022-11-02T16:12:15;13.00;61.00
48589;DHT22;34369;51.174;6.738;2022-11-02T16:14:53;12.90;61.20
48589;DHT22;34369;51.174;6.738;2022-11-02T16:17:29;12.90;61.90
48589;DHT22;34369;51.174;6.738;2022-11-02T16:20:13;12.80;61.70
48589;DHT22;34369;51.174;6.738;2022-11-02T16:22:50;12.70;61.60
48589;DHT22;34369;51.174;6.738;2022-11-02T16:25:31;12.80;61.90
48589;DHT22;34369;51.174;6.738;2022-11-02T16:28:15;12.60;61.90
48589;DHT22;34369;51.174;6.738;2022-11-02T16:31:03;12.50;62.20
48589;DHT22;34369;51.174;6.738;2022-11-02T16:33:39;12.40;62.30
48589;DHT22;34369;51.174;6.738;2022-11-02T16:36:14;12.40;62.60
48589;DHT22;34369;51.174;6.738;2022-11-02T16:41:21;12.30;63.10
48589;DHT22;34369;51.174;6.738;2022-11-02T16:44:01;12.20;62.90
48589;DHT22;34369;51.174;6.738;2022-11-02T16:46:41;12.10;63.10
48589;DHT22;34369;51.174;6.738;2022-11-02T16:49:21;12.10;63.30
48589;DHT22;34369;51.174;6.738;2022-11-02T16:51:56;12.00;63.40
48589;DHT22;34369;51.174;6.738;2022-11-02T16:54:46;12.00;63.70
48589;DHT22;34369;51.174;6.738;2022-11-02T16:57:21;11.80;63.90
48589;DHT22;34369;51.174;6.738;2022-11-02T16:59:57;11.90;64.50
48589;DHT22;34369;51.174;6.738;2022-11-02T17:02:33;11.80;63.70
48589;DHT22;34369;51.174;6.738;2022-11-02T17:05:15;11.70;63.90
48589;DHT22;34369;51.174;6.738;2022-11-02T17:07:56;11.80;63.90
48589;DHT22;34369;51.174;6.738;2022-11-02T17:10:31;11.70;63.90
48589;DHT22;34369;51.174;6.738;2022-11-02T17:13:14;11.60;63.80
48589;DHT22;34369;51.174;6.738;2022-11-02T17:15:49;11.60;63.90
48589;DHT22;34369;51.174;6.738;2022-11-02T17:18:27;11.60;63.70